sensor_id;sensor_type;location;lat;lon;timestamp;temperature;humidity
35495;DHT22;21608;49.300;6.846;2022-11-15T00:03:02;21.40;54.40
35495;DHT22;21608;49.300;6.846;2022-11-15T00:06:23;21.40;54.40
35495;DHT22;21608;49.300;6.846;2022-11-15T00:09:43;21.40;54.40
35495;DHT22;21608;49.300;6.846;2022-11-15T00:13:10;21.40;54.50
35495;DHT22;21608;49.300;6.846;2022-11-15T00:16:31;21.40;54.60
35495;DHT22;21608;49.300;6.846;2022-11-15T00:19:51;21.30;54.60
35495;DHT22;21608;49.300;6.846;2022-11-15T00:23:12;21.30;54.50
35495;DHT22;21608;49.300;6.846;2022-11-15T00:26:32;21.30;54.50
35495;DHT22;21608;49.300;6.846;2022-11-15T00:29:53;21.30;54.60
35495;DHT22;21608;49.300;6.846;2022-11-15T00:33:13;21.30;54.60
35495;DHT22;21608;49.300;6.846;2022-11-15T00:36:33;21.30;54.40
35495;DHT22;21608;49.300;6.846;2022-11-15T00:39:54;21.30;54.60
35495;DHT22;21608;49.300;6.846;2022-11-15T00:43:15;21.30;54.50
35495;DHT22;21608;49.300;6.846;2022-11-15T00:46:35;21.30;54.60
35495;DHT22;21608;49.300;6.846;2022-11-15T00:49:56;21.30;54.70
35495;DHT22;21608;49.300;6.846;2022-11-15T00:53:16;21.30;54.70
35495;DHT22;21608;49.300;6.846;2022-11-15T00:56:37;21.30;54.60
35495;DHT22;21608;49.300;6.846;2022-11-15T00:59:57;21.30;54.70
35495;DHT22;21608;49.300;6.846;2022-11-15T01:03:18;21.20;54.60
35495;DHT22;21608;49.300;6.846;2022-11-15T01:06:38;21.20;54.60
35495;DHT22;21608;49.300;6.846;2022-11-15T01:09:59;21.20;54.70
35495;DHT22;21608;49.300;6.846;2022-11-15T01:13:19;21.20;54.70
35495;DHT22;21608;49.300;6.846;2022-11-15T01:16:40;21.20;54.70
35495;DHT22;21608;49.300;6.846;2022-11-15T01:20:00;21.20;54.60
35495;DHT22;21608;49.300;6.846;2022-11-15T01:23:21;21.20;54.70
35495;DHT22;21608;49.300;6.846;2022-11-15T01:26:41;21.20;54.70
35495;DHT22;21608;49.300;6.846;2022-11-15T01:30:02;21.20;54.60
35495;DHT22;21608;49.300;6.846;2022-11-15T01:33:22;21.20;54.90
35495;DHT22;21608;49.300;6.846;2022-11-15T01:36:42;21.20;54.70
35495;DHT22;21608;49.300;6.846;2022-11-15T01:40:03;21.10;54.70
35495;DHT22;21608;49.300;6.846;2022-11-15T01:43:31;21.10;54.70
35495;DHT22;21608;49.300;6.846;2022-11-15T01:46:52;21.10;54.70
35495;DHT22;21608;49.300;6.846;2022-11-15T01:50:16;21.10;54.70
35495;DHT22;21608;49.300;6.846;2022-11-15T01:53:39;21.10;54.70
35495;DHT22;21608;49.300;6.846;2022-11-15T01:57:04;21.10;54.70
35495;DHT22;21608;49.300;6.846;2022-11-15T02:00:25;21.10;54.80
35495;DHT22;21608;49.300;6.846;2022-11-15T02:03:48;21.10;54.70
35495;DHT22;21608;49.300;6.846;2022-11-15T02:07:13;21.10;54.80
35495;DHT22;21608;49.300;6.846;2022-11-15T02:10:34;21.10;54.80
35495;DHT22;21608;49.300;6.846;2022-11-15T02:13:56;21.10;54.70
35495;DHT22;21608;49.300;6.846;2022-11-15T02:21:23;21.10;54.70
35495;DHT22;21608;49.300;6.846;2022-11-15T02:35:39;21.10;54.80
35495;DHT22;21608;49.300;6.846;2022-11-15T02:42:42;21.00;54.70
35495;DHT22;21608;49.300;6.846;2022-11-15T02:50:32;21.00;54.70
35495;DHT22;21608;49.300;6.846;2022-11-15T02:53:53;21.00;54.80
35495;DHT22;21608;49.300;6.846;2022-11-15T02:57:16;21.00;54.80
35495;DHT22;21608;49.300;6.846;2022-11-15T03:01:08;21.00;54.80
35495;DHT22;21608;49.300;6.846;2022-11-15T03:08:25;21.00;54.80
35495;DHT22;21608;49.300;6.846;2022-11-15T03:12:01;21.00;54.80
35495;DHT22;21608;49.300;6.846;2022-11-15T03:15:29;21.00;54.70
35495;DHT22;21608;49.300;6.846;2022-11-15T03:18:59;21.00;54.80
35495;DHT22;21608;49.300;6.846;2022-11-15T03:22:23;21.00;54.80
35495;DHT22;21608;49.300;6.846;2022-11-15T03:25:47;21.00;54.90
35495;DHT22;21608;49.300;6.846;2022-11-15T03:29:13;21.00;55.00
35495;DHT22;21608;49.300;6.846;2022-11-15T03:32:40;20.90;54.90
35495;DHT22;21608;49.300;6.846;2022-11-15T03:36:01;20.90;54.80
35495;DHT22;21608;49.300;6.846;2022-11-15T03:39:22;20.90;54.70
35495;DHT22;21608;49.300;6.846;2022-11-15T03:46:31;20.90;54.90
35495;DHT22;21608;49.300;6.846;2022-11-15T03:49:57;20.90;54.80
35495;DHT22;21608;49.300;6.846;2022-11-15T03:53:19;20.90;55.40
35495;DHT22;21608;49.300;6.846;2022-11-15T03:56:39;20.90;54.80
35495;DHT22;21608;49.300;6.846;2022-11-15T04:00:00;20.90;54.80
35495;DHT22;21608;49.300;6.846;2022-11-15T04:03:20;20.90;54.80
35495;DHT22;21608;49.300;6.846;2022-11-15T04:06:41;20.90;54.80
35495;DHT22;21608;49.300;6.846;2022-11-15T04:10:01;20.90;54.80
35495;DHT22;21608;49.300;6.846;2022-11-15T04:13:22;20.80;54.70
35495;DHT22;21608;49.300;6.846;2022-11-15T04:16:42;20.80;54.80
35495;DHT22;21608;49.300;6.846;2022-11-15T04:20:05;20.80;54.80
35495;DHT22;21608;49.300;6.846;2022-11-15T04:23:45;20.80;54.80
35495;DHT22;21608;49.300;6.846;2022-11-15T04:27:24;20.80;54.90
35495;DHT22;21608;49.300;6.846;2022-11-15T04:30:44;20.80;54.80
35495;DHT22;21608;49.300;6.846;2022-11-15T04:34:04;20.80;54.90
35495;DHT22;21608;49.300;6.846;2022-11-15T04:37:25;20.80;54.80
35495;DHT22;21608;49.300;6.846;2022-11-15T04:40:46;20.80;54.90
35495;DHT22;21608;49.300;6.846;2022-11-15T04:44:06;20.80;54.80
35495;DHT22;21608;49.300;6.846;2022-11-15T04:47:27;20.80;54.90
35495;DHT22;21608;49.300;6.846;2022-11-15T04:50:48;20.80;54.80
35495;DHT22;21608;49.300;6.846;2022-11-15T04:54:09;20.70;54.80
35495;DHT22;21608;49.300;6.846;2022-11-15T04:57:29;20.80;54.80
35495;DHT22;21608;49.300;6.846;2022-11-15T05:00:49;20.80;54.80
35495;DHT22;21608;49.300;6.846;2022-11-15T05:04:10;20.80;55.00
35495;DHT22;21608;49.300;6.846;2022-11-15T05:07:39;20.70;54.80
35495;DHT22;21608;49.300;6.846;2022-11-15T05:10:59;20.80;54.90
35495;DHT22;21608;49.300;6.846;2022-11-15T05:14:20;20.80;54.90
35495;DHT22;21608;49.300;6.846;2022-11-15T05:17:40;20.80;54.80
35495;DHT22;21608;49.300;6.846;2022-11-15T05:21:05;20.80;54.90
35495;DHT22;21608;49.300;6.846;2022-11-15T05:24:26;20.80;54.90
35495;DHT22;21608;49.300;6.846;2022-11-15T05:27:46;20.80;55.00
35495;DHT22;21608;49.300;6.846;2022-11-15T05:31:09;20.80;54.90
35495;DHT22;21608;49.300;6.846;2022-11-15T05:34:30;20.80;55.00
35495;DHT22;21608;49.300;6.846;2022-11-15T05:37:50;20.80;55.00
35495;DHT22;21608;49.300;6.846;2022-11-15T05:41:12;20.80;55.20
35495;DHT22;21608;49.300;6.846;2022-11-15T05:44:33;20.80;55.20
35495;DHT22;21608;49.300;6.846;2022-11-15T05:47:57;20.80;55.00
35495;DHT22;21608;49.300;6.846;2022-11-15T05:51:20;20.80;55.00
35495;DHT22;21608;49.300;6.846;2022-11-15T05:54:41;20.80;54.90
35495;DHT22;21608;49.300;6.846;2022-11-15T05:58:01;20.80;55.50
35495;DHT22;21608;49.300;6.846;2022-11-15T06:01:22;20.80;54.80
35495;DHT22;21608;49.300;6.846;2022-11-15T06:04:43;20.80;54.90
35495;DHT22;21608;49.300;6.846;2022-11-15T06:08:03;20.80;54.80
35495;DHT22;21608;49.300;6.846;2022-11-15T06:11:23;20.80;54.90
35495;DHT22;21608;49.300;6.846;2022-11-15T06:14:44;20.80;54.80
35495;DHT22;21608;49.300;6.846;2022-11-15T06:18:04;20.70;54.70
35495;DHT22;21608;49.300;6.846;2022-11-15T06:21:25;20.80;54.70
35495;DHT22;21608;49.300;6.846;2022-11-15T06:24:48;20.70;54.70
35495;DHT22;21608;49.300;6.846;2022-11-15T06:28:08;20.80;54.80
35495;DHT22;21608;49.300;6.846;2022-11-15T06:31:29;20.70;54.90
35495;DHT22;21608;49.300;6.846;2022-11-15T06:34:49;20.70;54.90
35495;DHT22;21608;49.300;6.846;2022-11-15T06:38:10;20.70;55.00
35495;DHT22;21608;49.300;6.846;2022-11-15T06:41:34;20.70;54.10
35495;DHT22;21608;49.300;6.846;2022-11-15T06:44:55;20.60;54.20
35495;DHT22;21608;49.300;6.846;2022-11-15T06:48:15;20.60;54.40
35495;DHT22;21608;49.300;6.846;2022-11-15T06:51:36;20.60;54.60
35495;DHT22;21608;49.300;6.846;2022-11-15T06:54:56;20.70;54.50
35495;DHT22;21608;49.300;6.846;2022-11-15T06:58:17;20.70;54.50
35495;DHT22;21608;49.300;6.846;2022-11-15T07:01:38;20.70;54.50
35495;DHT22;21608;49.300;6.846;2022-11-15T07:04:58;20.70;54.60
35495;DHT22;21608;49.300;6.846;2022-11-15T07:08:19;20.70;54.70
35495;DHT22;21608;49.300;6.846;2022-11-15T07:11:39;20.70;54.60
35495;DHT22;21608;49.300;6.846;2022-11-15T07:15:00;20.70;54.80
35495;DHT22;21608;49.300;6.846;2022-11-15T07:18:20;20.70;54.70
35495;DHT22;21608;49.300;6.846;2022-11-15T07:21:40;20.70;54.60
35495;DHT22;21608;49.300;6.846;2022-11-15T07:25:01;20.70;54.80
35495;DHT22;21608;49.300;6.846;2022-11-15T07:28:21;20.60;53.90
35495;DHT22;21608;49.300;6.846;2022-11-15T07:31:42;20.60;54.30
35495;DHT22;21608;49.300;6.846;2022-11-15T07:35:02;20.60;54.40
35495;DHT22;21608;49.300;6.846;2022-11-15T07:38:23;20.60;54.60
35495;DHT22;21608;49.300;6.846;2022-11-15T07:41:43;20.60;54.60
35495;DHT22;21608;49.300;6.846;2022-11-15T07:45:04;20.60;54.70
35495;DHT22;21608;49.300;6.846;2022-11-15T07:48:25;20.70;54.70
35495;DHT22;21608;49.300;6.846;2022-11-15T07:51:59;20.60;54.50
35495;DHT22;21608;49.300;6.846;2022-11-15T07:55:19;20.70;54.60
35495;DHT22;21608;49.300;6.846;2022-11-15T07:58:39;20.60;54.70
35495;DHT22;21608;49.300;6.846;2022-11-15T08:02:00;20.60;54.80
35495;DHT22;21608;49.300;6.846;2022-11-15T08:05:21;20.60;54.80
35495;DHT22;21608;49.300;6.846;2022-11-15T08:08:42;20.60;55.30
35495;DHT22;21608;49.300;6.846;2022-11-15T08:12:03;20.60;54.40
35495;DHT22;21608;49.300;6.846;2022-11-15T08:15:23;20.50;53.20
35495;DHT22;21608;49.300;6.846;2022-11-15T08:18:44;20.50;53.60
35495;DHT22;21608;49.300;6.846;2022-11-15T08:22:04;20.50;54.00
35495;DHT22;21608;49.300;6.846;2022-11-15T08:25:26;20.50;54.30
35495;DHT22;21608;49.300;6.846;2022-11-15T08:28:46;20.50;54.40
35495;DHT22;21608;49.300;6.846;2022-11-15T08:32:07;20.50;54.50
35495;DHT22;21608;49.300;6.846;2022-11-15T08:35:28;20.60;54.50
35495;DHT22;21608;49.300;6.846;2022-11-15T08:38:48;20.60;54.50
35495;DHT22;21608;49.300;6.846;2022-11-15T08:42:09;20.60;54.40
35495;DHT22;21608;49.300;6.846;2022-11-15T08:45:36;20.60;54.60
35495;DHT22;21608;49.300;6.846;2022-11-15T08:48:56;20.60;55.10
35495;DHT22;21608;49.300;6.846;2022-11-15T08:52:17;20.60;54.60
35495;DHT22;21608;49.300;6.846;2022-11-15T08:55:38;20.60;54.70
35495;DHT22;21608;49.300;6.846;2022-11-15T08:58:59;20.60;54.60
35495;DHT22;21608;49.300;6.846;2022-11-15T09:02:19;20.60;54.50
35495;DHT22;21608;49.300;6.846;2022-11-15T09:05:40;20.60;54.50
35495;DHT22;21608;49.300;6.846;2022-11-15T09:09:02;20.60;54.60
35495;DHT22;21608;49.300;6.846;2022-11-15T09:12:22;20.60;54.60
35495;DHT22;21608;49.300;6.846;2022-11-15T09:15:43;20.60;54.70
35495;DHT22;21608;49.300;6.846;2022-11-15T09:19:04;20.60;54.70
35495;DHT22;21608;49.300;6.846;2022-11-15T09:22:30;20.60;54.60
35495;DHT22;21608;49.300;6.846;2022-11-15T09:25:52;20.60;54.70
35495;DHT22;21608;49.300;6.846;2022-11-15T09:29:12;20.60;54.70
35495;DHT22;21608;49.300;6.846;2022-11-15T09:32:33;20.60;54.60
35495;DHT22;21608;49.300;6.846;2022-11-15T09:36:04;20.60;54.80
35495;DHT22;21608;49.300;6.846;2022-11-15T09:39:25;20.60;54.70
35495;DHT22;21608;49.300;6.846;2022-11-15T09:43:06;20.60;54.80
35495;DHT22;21608;49.300;6.846;2022-11-15T09:46:57;20.60;54.80
35495;DHT22;21608;49.300;6.846;2022-11-15T09:50:48;20.60;54.80
35495;DHT22;21608;49.300;6.846;2022-11-15T09:54:31;20.60;54.90
35495;DHT22;21608;49.300;6.846;2022-11-15T09:57:54;20.70;54.80
35495;DHT22;21608;49.300;6.846;2022-11-15T10:01:00;20.70;54.70
35495;DHT22;21608;49.300;6.846;2022-11-15T10:04:06;20.70;54.70
35495;DHT22;21608;49.300;6.846;2022-11-15T10:07:16;20.70;54.80
35495;DHT22;21608;49.300;6.846;2022-11-15T10:10:45;20.70;54.70
35495;DHT22;21608;49.300;6.846;2022-11-15T10:13:50;20.70;54.70
35495;DHT22;21608;49.300;6.846;2022-11-15T10:20:28;20.80;54.70
35495;DHT22;21608;49.300;6.846;2022-11-15T10:23:31;20.80;54.70
35495;DHT22;21608;49.300;6.846;2022-11-15T10:26:33;20.80;54.60
35495;DHT22;21608;49.300;6.846;2022-11-15T10:29:35;20.80;54.60
35495;DHT22;21608;49.300;6.846;2022-11-15T10:32:37;20.80;54.70
35495;DHT22;21608;49.300;6.846;2022-11-15T10:35:39;20.80;54.70
35495;DHT22;21608;49.300;6.846;2022-11-15T10:38:51;20.80;54.60
35495;DHT22;21608;49.300;6.846;2022-11-15T10:41:54;20.80;54.70
35495;DHT22;21608;49.300;6.846;2022-11-15T10:44:56;20.80;54.60
35495;DHT22;21608;49.300;6.846;2022-11-15T10:51:24;20.80;54.50
35495;DHT22;21608;49.300;6.846;2022-11-15T10:54:37;20.80;54.40
35495;DHT22;21608;49.300;6.846;2022-11-15T10:57:52;20.80;54.50
35495;DHT22;21608;49.300;6.846;2022-11-15T11:00:54;20.90;54.50
35495;DHT22;21608;49.300;6.846;2022-11-15T11:04:04;20.90;54.30
35495;DHT22;21608;49.300;6.846;2022-11-15T11:07:20;20.90;54.20
35495;DHT22;21608;49.300;6.846;2022-11-15T11:10:22;20.90;54.10
35495;DHT22;21608;49.300;6.846;2022-11-15T11:13:45;20.90;54.20
35495;DHT22;21608;49.300;6.846;2022-11-15T11:17:15;20.90;54.30
35495;DHT22;21608;49.300;6.846;2022-11-15T11:20:34;20.90;54.40
35495;DHT22;21608;49.300;6.846;2022-11-15T11:24:18;20.90;54.40
35495;DHT22;21608;49.300;6.846;2022-11-15T11:27:33;20.80;54.30
35495;DHT22;21608;49.300;6.846;2022-11-15T11:34:02;20.80;54.40
35495;DHT22;21608;49.300;6.846;2022-11-15T11:40:39;20.90;54.40
35495;DHT22;21608;49.300;6.846;2022-11-15T11:47:30;20.90;54.40
35495;DHT22;21608;49.300;6.846;2022-11-15T11:50:37;20.90;54.30
35495;DHT22;21608;49.300;6.846;2022-11-15T11:53:44;20.90;54.40
35495;DHT22;21608;49.300;6.846;2022-11-15T11:56:47;20.90;54.40
35495;DHT22;21608;49.300;6.846;2022-11-15T12:00:24;21.00;54.30
35495;DHT22;21608;49.300;6.846;2022-11-15T12:06:51;21.00;54.40
35495;DHT22;21608;49.300;6.846;2022-11-15T12:10:24;21.00;54.30
35495;DHT22;21608;49.300;6.846;2022-11-15T12:13:29;20.90;54.30
35495;DHT22;21608;49.300;6.846;2022-11-15T12:16:34;21.00;54.30
35495;DHT22;21608;49.300;6.846;2022-11-15T12:19:37;21.00;54.40
35495;DHT22;21608;49.300;6.846;2022-11-15T12:22:45;20.90;54.20
35495;DHT22;21608;49.300;6.846;2022-11-15T12:25:52;20.90;54.30
35495;DHT22;21608;49.300;6.846;2022-11-15T12:28:58;21.00;54.40
35495;DHT22;21608;49.300;6.846;2022-11-15T12:32:29;21.00;54.40
35495;DHT22;21608;49.300;6.846;2022-11-15T12:35:39;21.00;54.40
35495;DHT22;21608;49.300;6.846;2022-11-15T12:44:57;20.90;54.20
35495;DHT22;21608;49.300;6.846;2022-11-15T12:51:20;20.90;54.30
35495;DHT22;21608;49.300;6.846;2022-11-15T12:57:36;20.90;54.20
35495;DHT22;21608;49.300;6.846;2022-11-15T13:00:40;21.00;54.40
35495;DHT22;21608;49.300;6.846;2022-11-15T13:04:11;20.90;54.30
35495;DHT22;21608;49.300;6.846;2022-11-15T13:10:41;21.00;54.40
35495;DHT22;21608;49.300;6.846;2022-11-15T13:13:44;20.90;54.30
35495;DHT22;21608;49.300;6.846;2022-11-15T13:16:47;20.90;54.20
35495;DHT22;21608;49.300;6.846;2022-11-15T13:23:10;20.90;54.40
35495;DHT22;21608;49.300;6.846;2022-11-15T13:26:14;20.90;54.30
35495;DHT22;21608;49.300;6.846;2022-11-15T13:29:19;20.90;54.30
35495;DHT22;21608;49.300;6.846;2022-11-15T13:32:21;20.90;54.30
35495;DHT22;21608;49.300;6.846;2022-11-15T13:35:25;20.90;54.30
35495;DHT22;21608;49.300;6.846;2022-11-15T13:38:30;20.90;54.20
35495;DHT22;21608;49.300;6.846;2022-11-15T13:41:35;20.90;54.40
35495;DHT22;21608;49.300;6.846;2022-11-15T13:44:37;20.90;54.30
35495;DHT22;21608;49.300;6.846;2022-11-15T13:47:39;20.90;54.30
35495;DHT22;21608;49.300;6.846;2022-11-15T13:50:40;20.90;54.40
35495;DHT22;21608;49.300;6.846;2022-11-15T13:53:51;20.90;54.30
35495;DHT22;21608;49.300;6.846;2022-11-15T13:56:55;20.90;54.10
35495;DHT22;21608;49.300;6.846;2022-11-15T14:00:04;20.90;54.10
35495;DHT22;21608;49.300;6.846;2022-11-15T14:03:23;20.90;54.10
35495;DHT22;21608;49.300;6.846;2022-11-15T14:06:28;20.80;54.20
35495;DHT22;21608;49.300;6.846;2022-11-15T14:09:37;20.80;54.10
35495;DHT22;21608;49.300;6.846;2022-11-15T14:12:50;20.80;54.10
35495;DHT22;21608;49.300;6.846;2022-11-15T14:15:52;20.80;54.30
35495;DHT22;21608;49.300;6.846;2022-11-15T14:18:54;20.80;54.20
35495;DHT22;21608;49.300;6.846;2022-11-15T14:25:17;20.80;54.20
35495;DHT22;21608;49.300;6.846;2022-11-15T14:31:25;20.80;54.80
35495;DHT22;21608;49.300;6.846;2022-11-15T14:34:26;20.80;54.40
35495;DHT22;21608;49.300;6.846;2022-11-15T14:37:31;20.80;54.40
35495;DHT22;21608;49.300;6.846;2022-11-15T14:40:35;20.80;54.30
35495;DHT22;21608;49.300;6.846;2022-11-15T14:43:36;20.80;54.30
35495;DHT22;21608;49.300;6.846;2022-11-15T14:46:38;20.80;54.30
35495;DHT22;21608;49.300;6.846;2022-11-15T14:49:40;20.80;54.30
35495;DHT22;21608;49.300;6.846;2022-11-15T14:52:42;20.80;54.30
35495;DHT22;21608;49.300;6.846;2022-11-15T14:55:44;20.80;54.30
35495;DHT22;21608;49.300;6.846;2022-11-15T14:58:46;20.80;54.20
35495;DHT22;21608;49.300;6.846;2022-11-15T15:01:48;20.80;54.30
35495;DHT22;21608;49.300;6.846;2022-11-15T15:04:50;20.70;54.90
35495;DHT22;21608;49.300;6.846;2022-11-15T15:07:52;20.70;54.30
35495;DHT22;21608;49.300;6.846;2022-11-15T15:10:57;20.80;54.30
35495;DHT22;21608;49.300;6.846;2022-11-15T15:13:59;20.70;54.30
35495;DHT22;21608;49.300;6.846;2022-11-15T15:17:02;20.70;54.30
35495;DHT22;21608;49.300;6.846;2022-11-15T15:20:05;20.70;54.20
35495;DHT22;21608;49.300;6.846;2022-11-15T15:23:15;20.70;54.30
35495;DHT22;21608;49.300;6.846;2022-11-15T15:26:17;20.70;54.30
35495;DHT22;21608;49.300;6.846;2022-11-15T15:29:19;20.70;54.40
35495;DHT22;21608;49.300;6.846;2022-11-15T15:32:21;20.70;54.30
35495;DHT22;21608;49.300;6.846;2022-11-15T15:35:23;20.70;54.30
35495;DHT22;21608;49.300;6.846;2022-11-15T15:38:29;20.70;54.20
35495;DHT22;21608;49.300;6.846;2022-11-15T15:41:32;20.80;54.40
35495;DHT22;21608;49.300;6.846;2022-11-15T15:44:34;20.80;54.80
35495;DHT22;21608;49.300;6.846;2022-11-15T15:47:36;20.80;54.80
35495;DHT22;21608;49.300;6.846;2022-11-15T15:50:39;20.80;54.70
35495;DHT22;21608;49.300;6.846;2022-11-15T15:53:41;20.80;54.80
35495;DHT22;21608;49.300;6.846;2022-11-15T15:56:42;20.80;54.90
35495;DHT22;21608;49.300;6.846;2022-11-15T15:59:44;20.80;54.80
35495;DHT22;21608;49.300;6.846;2022-11-15T16:02:46;20.80;54.80
35495;DHT22;21608;49.300;6.846;2022-11-15T16:05:49;20.80;54.80
35495;DHT22;21608;49.300;6.846;2022-11-15T16:08:51;20.70;54.90
35495;DHT22;21608;49.300;6.846;2022-11-15T16:12:13;20.70;54.80
35495;DHT22;21608;49.300;6.846;2022-11-15T16:15:16;20.70;54.80
35495;DHT22;21608;49.300;6.846;2022-11-15T16:18:18;20.80;55.40
35495;DHT22;21608;49.300;6.846;2022-11-15T16:21:20;20.70;54.80
35495;DHT22;21608;49.300;6.846;2022-11-15T16:24:22;20.70;54.90
35495;DHT22;21608;49.300;6.846;2022-11-15T16:27:24;20.70;54.80
35495;DHT22;21608;49.300;6.846;2022-11-15T16:30:25;20.70;55.00
35495;DHT22;21608;49.300;6.846;2022-11-15T16:33:27;20.80;54.80
35495;DHT22;21608;49.300;6.846;2022-11-15T16:36:32;20.70;54.90
35495;DHT22;21608;49.300;6.846;2022-11-15T16:39:34;20.70;54.90
35495;DHT22;21608;49.300;6.846;2022-11-15T16:42:36;20.70;54.90
35495;DHT22;21608;49.300;6.846;2022-11-15T16:45:37;20.70;55.10
35495;DHT22;21608;49.300;6.846;2022-11-15T16:48:40;20.70;54.90
35495;DHT22;21608;49.300;6.846;2022-11-15T16:51:41;20.70;55.00
35495;DHT22;21608;49.300;6.846;2022-11-15T16:54:45;20.70;54.80
35495;DHT22;21608;49.300;6.846;2022-11-15T16:57:47;20.70;54.90
35495;DHT22;21608;49.300;6.846;2022-11-15T17:00:54;20.70;55.00
35495;DHT22;21608;49.300;6.846;2022-11-15T17:03:56;20.70;55.10
35495;DHT22;21608;49.300;6.846;2022-11-15T17:06:58;20.70;55.10
35495;DHT22;21608;49.300;6.846;2022-11-15T17:10:00;20.70;55.10
35495;DHT22;21608;49.300;6.846;2022-11-15T17:13:01;20.70;55.00
35495;DHT22;21608;49.300;6.846;2022-11-15T17:16:09;20.70;55.20
35495;DHT22;21608;49.300;6.846;2022-11-15T17:19:12;20.70;55.60
35495;DHT22;21608;49.300;6.846;2022-11-15T17:22:15;20.70;54.90
35495;DHT22;21608;49.300;6.846;2022-11-15T17:25:17;20.70;55.00
35495;DHT22;21608;49.300;6.846;2022-11-15T17:28:19;20.70;55.50
35495;DHT22;21608;49.300;6.846;2022-11-15T17:31:20;20.70;55.20
35495;DHT22;21608;49.300;6.846;2022-11-15T17:34:22;20.70;55.00
35495;DHT22;21608;49.300;6.846;2022-11-15T17:37:24;20.80;55.00
35495;DHT22;21608;49.300;6.846;2022-11-15T17:40:26;20.80;55.10
35495;DHT22;21608;49.300;6.846;2022-11-15T17:43:29;20.70;55.20
35495;DHT22;21608;49.300;6.846;2022-11-15T17:46:31;20.80;55.10
35495;DHT22;21608;49.300;6.846;2022-11-15T17:49:34;20.80;55.10
35495;DHT22;21608;49.300;6.846;2022-11-15T17:52:39;20.80;55.10
35495;DHT22;21608;49.300;6.846;2022-11-15T17:55:41;20.70;55.10
35495;DHT22;21608;49.300;6.846;2022-11-15T17:58:48;20.80;55.10
35495;DHT22;21608;49.300;6.846;2022-11-15T18:01:50;20.70;55.10
35495;DHT22;21608;49.300;6.846;2022-11-15T18:04:52;20.80;55.10
35495;DHT22;21608;49.300;6.846;2022-11-15T18:07:53;20.80;55.00
35495;DHT22;21608;49.300;6.846;2022-11-15T18:11:23;20.80;55.20
35495;DHT22;21608;49.300;6.846;2022-11-15T18:14:25;20.80;55.20
35495;DHT22;21608;49.300;6.846;2022-11-15T18:17:27;20.80;55.20
35495;DHT22;21608;49.300;6.846;2022-11-15T18:20:29;20.80;55.10
35495;DHT22;21608;49.300;6.846;2022-11-15T18:23:32;20.80;55.40
35495;DHT22;21608;49.300;6.846;2022-11-15T18:26:34;20.80;55.00
35495;DHT22;21608;49.300;6.846;2022-11-15T18:29:36;20.70;55.40
35495;DHT22;21608;49.300;6.846;2022-11-15T18:32:38;20.80;55.10
35495;DHT22;21608;49.300;6.846;2022-11-15T18:35:40;20.80;55.70
35495;DHT22;21608;49.300;6.846;2022-11-15T18:38:42;20.80;55.10
35495;DHT22;21608;49.300;6.846;2022-11-15T18:41:44;20.80;55.00
35495;DHT22;21608;49.300;6.846;2022-11-15T18:44:49;20.80;55.00
35495;DHT22;21608;49.300;6.846;2022-11-15T18:47:51;20.80;55.00
35495;DHT22;21608;49.300;6.846;2022-11-15T18:50:59;20.80;55.00
35495;DHT22;21608;49.300;6.846;2022-11-15T18:54:07;20.80;55.00
35495;DHT22;21608;49.300;6.846;2022-11-15T18:57:09;20.80;54.90
35495;DHT22;21608;49.300;6.846;2022-11-15T19:00:11;20.90;55.00
35495;DHT22;21608;49.300;6.846;2022-11-15T19:03:13;20.90;55.00
35495;DHT22;21608;49.300;6.846;2022-11-15T19:06:21;20.90;54.90
35495;DHT22;21608;49.300;6.846;2022-11-15T19:09:23;20.90;55.00
35495;DHT22;21608;49.300;6.846;2022-11-15T19:12:32;21.00;55.30
35495;DHT22;21608;49.300;6.846;2022-11-15T19:15:33;21.00;55.00
35495;DHT22;21608;49.300;6.846;2022-11-15T19:18:35;21.00;55.00
35495;DHT22;21608;49.300;6.846;2022-11-15T19:21:37;21.00;54.90
35495;DHT22;21608;49.300;6.846;2022-11-15T19:24:39;20.90;54.90
35495;DHT22;21608;49.300;6.846;2022-11-15T19:27:40;21.00;55.10
35495;DHT22;21608;49.300;6.846;2022-11-15T19:30:42;21.10;55.20
35495;DHT22;21608;49.300;6.846;2022-11-15T19:33:44;21.00;54.90
35495;DHT22;21608;49.300;6.846;2022-11-15T19:36:46;21.00;54.90
35495;DHT22;21608;49.300;6.846;2022-11-15T19:39:48;21.00;54.90
35495;DHT22;21608;49.300;6.846;2022-11-15T19:42:50;21.10;55.00
35495;DHT22;21608;49.300;6.846;2022-11-15T19:45:53;21.10;55.00
35495;DHT22;21608;49.300;6.846;2022-11-15T19:49:03;21.20;55.00
35495;DHT22;21608;49.300;6.846;2022-11-15T19:52:05;21.10;55.10
35495;DHT22;21608;49.300;6.846;2022-11-15T19:55:07;21.20;55.10
35495;DHT22;21608;49.300;6.846;2022-11-15T19:58:09;21.20;54.90
35495;DHT22;21608;49.300;6.846;2022-11-15T20:04:18;21.20;55.00
35495;DHT22;21608;49.300;6.846;2022-11-15T20:07:20;21.30;55.00
35495;DHT22;21608;49.300;6.846;2022-11-15T20:10:22;21.30;55.00
35495;DHT22;21608;49.300;6.846;2022-11-15T20:13:24;21.30;55.10
35495;DHT22;21608;49.300;6.846;2022-11-15T20:16:26;21.30;54.90
35495;DHT22;21608;49.300;6.846;2022-11-15T20:19:28;21.30;55.10
35495;DHT22;21608;49.300;6.846;2022-11-15T20:22:30;21.30;55.40
35495;DHT22;21608;49.300;6.846;2022-11-15T20:25:31;21.30;55.00
35495;DHT22;21608;49.300;6.846;2022-11-15T20:28:35;21.40;55.10
35495;DHT22;21608;49.300;6.846;2022-11-15T20:31:37;21.40;55.90
35495;DHT22;21608;49.300;6.846;2022-11-15T20:34:39;21.40;55.10
35495;DHT22;21608;49.300;6.846;2022-11-15T20:37:41;21.40;55.20
35495;DHT22;21608;49.300;6.846;2022-11-15T20:40:47;21.40;55.00
35495;DHT22;21608;49.300;6.846;2022-11-15T20:43:49;21.40;54.90
35495;DHT22;21608;49.300;6.846;2022-11-15T20:46:50;21.40;55.50
35495;DHT22;21608;49.300;6.846;2022-11-15T20:49:52;21.50;54.90
35495;DHT22;21608;49.300;6.846;2022-11-15T20:52:56;21.50;55.00
35495;DHT22;21608;49.300;6.846;2022-11-15T20:56:06;21.50;54.80
35495;DHT22;21608;49.300;6.846;2022-11-15T20:59:08;21.50;54.80
35495;DHT22;21608;49.300;6.846;2022-11-15T21:02:14;21.50;54.70
35495;DHT22;21608;49.300;6.846;2022-11-15T21:05:16;21.50;54.70
35495;DHT22;21608;49.300;6.846;2022-11-15T21:08:18;21.50;54.70
35495;DHT22;21608;49.300;6.846;2022-11-15T21:11:19;21.60;54.70
35495;DHT22;21608;49.300;6.846;2022-11-15T21:14:41;21.60;54.70
35495;DHT22;21608;49.300;6.846;2022-11-15T21:17:43;21.60;54.70
35495;DHT22;21608;49.300;6.846;2022-11-15T21:20:44;21.60;54.70
35495;DHT22;21608;49.300;6.846;2022-11-15T21:23:46;21.60;54.90
35495;DHT22;21608;49.300;6.846;2022-11-15T21:26:48;21.60;54.70
35495;DHT22;21608;49.300;6.846;2022-11-15T21:29:49;21.60;54.70
35495;DHT22;21608;49.300;6.846;2022-11-15T21:32:51;21.70;54.70
35495;DHT22;21608;49.300;6.846;2022-11-15T21:35:54;21.70;54.70
35495;DHT22;21608;49.300;6.846;2022-11-15T21:38:56;21.70;54.70